Time;durP1;ratioP1;P1;durP2;ratioP2;P2;SDS_P1;SDS_P2;PMS_P1;PMS_P2;Temp;Humidity;BMP_temperature;BMP_pressure;BME280_temperature;BME280_humidity;BME280_pressure;Samples;Min_cycle;Max_cycle;Signal;HPM_P1;HPM_P2
2024/04/01 00:00:38;;;;;;;4.72;1.67;;;;;;;11.32;100.00;99311.44;5039890;28;20016;-64
2024/04/01 00:03:04;;;;;;;3.13;1.77;;;;;;;11.32;100.00;99311.44;5047141;28;20098;-66
2024/04/01 00:05:29;;;;;;;2.03;1.58;;;;;;;11.33;100.00;99315.75;5040703;28;20268;-66
2024/04/01 00:07:56;;;;;;;2.97;1.80;;;;;;;11.34;100.00;99316.56;5032528;28;20025;-66
2024/04/01 00:10:25;;;;;;;2.55;1.60;;;;;;;11.33;100.00;99309.69;5041064;28;20083;-65
2024/04/01 00:12:51;;;;;;;2.03;1.50;;;;;;;11.31;100.00;99306.31;5036099;28;20106;-64
2024/04/01 00:15:18;;;;;;;4.43;1.88;;;;;;;11.31;100.00;99307.16;5044024;28;20029;-65
2024/04/01 00:17:43;;;;;;;2.67;1.55;;;;;;;11.29;100.00;99308.19;5038728;28;20041;-64
2024/04/01 00:20:09;;;;;;;4.22;1.60;;;;;;;11.29;100.00;99305.59;5035099;28;20047;-65
2024/04/01 00:22:34;;;;;;;1.50;1.40;;;;;;;11.25;100.00;99302.28;5041999;28;20479;-65
2024/04/01 00:25:00;;;;;;;3.85;1.80;;;;;;;11.23;100.00;99298.91;5037802;28;20103;-65
2024/04/01 00:27:25;;;;;;;3.50;1.88;;;;;;;11.22;100.00;99307.72;5040581;28;20079;-64
2024/04/01 00:29:50;;;;;;;3.78;1.83;;;;;;;11.21;100.00;99300.78;5048530;28;20027;-66
2024/04/01 00:32:16;;;;;;;3.03;1.88;;;;;;;11.21;100.00;99312.06;5040595;28;20035;-65
2024/04/01 00:34:41;;;;;;;4.43;1.73;;;;;;;11.19;100.00;99302.69;5048008;28;20422;-64
2024/04/01 00:37:06;;;;;;;2.47;1.63;;;;;;;11.21;100.00;99303.41;5045437;28;20379;-66
2024/04/01 00:39:32;;;;;;;3.78;2.28;;;;;;;11.19;100.00;99294.84;5042068;28;20031;-64
2024/04/01 00:41:57;;;;;;;2.58;1.60;;;;;;;11.18;100.00;99282.72;5040792;28;20423;-66
2024/04/01 00:44:22;;;;;;;3.45;1.95;;;;;;;11.16;100.00;99276.72;5040768;28;20026;-66
2024/04/01 00:46:48;;;;;;;2.28;1.50;;;;;;;11.16;100.00;99276.72;5039213;28;20037;-65
2024/04/01 00:49:13;;;;;;;4.22;1.70;;;;;;;11.11;100.00;99269.16;5035590;28;20154;-64
2024/04/01 00:51:39;;;;;;;3.78;1.70;;;;;;;11.11;100.00;99260.50;5041352;28;20017;-68
2024/04/01 00:54:06;;;;;;;3.15;1.77;;;;;;;11.13;100.00;99261.25;5038932;28;20569;-65
2024/04/01 00:56:34;;;;;;;2.40;2.05;;;;;;;11.09;100.00;99261.44;5044235;28;20032;-66
2024/04/01 00:59:01;;;;;;;4.28;2.20;;;;;;;11.08;100.00;99251.91;5036476;28;20194;-63
2024/04/01 01:01:27;;;;;;;2.75;2.47;;;;;;;11.06;100.00;99259.00;5038313;28;20026;-66
2024/04/01 01:03:53;;;;;;;4.30;3.00;;;;;;;11.09;100.00;99260.56;5045104;28;20040;-65
2024/04/01 01:06:19;;;;;;;5.07;3.28;;;;;;;11.05;100.00;99259.06;5043149;28;20111;-66
2024/04/01 01:08:45;;;;;;;4.35;2.70;;;;;;;11.00;100.00;99254.13;5030385;28;20121;-66
2024/04/01 01:11:12;;;;;;;2.03;1.83;;;;;;;10.93;100.00;99255.44;5042321;28;20037;-66
2024/04/01 01:13:37;;;;;;;1.60;1.50;;;;;;;10.89;100.00;99264.38;5034691;28;20052;-65
2024/04/01 01:16:03;;;;;;;2.75;1.75;;;;;;;10.84;100.00;99267.25;5041603;28;20055;-64
2024/04/01 01:18:28;;;;;;;2.58;1.63;;;;;;;10.89;100.00;99266.97;5035401;28;20068;-65
2024/04/01 01:20:54;;;;;;;1.85;1.70;;;;;;;10.85;100.00;99262.88;5043186;28;20269;-65
2024/04/01 01:23:19;;;;;;;1.98;1.70;;;;;;;10.85;100.00;99262.88;5035873;28;20033;-65
2024/04/01 01:25:44;;;;;;;2.45;1.80;;;;;;;10.82;100.00;99273.50;5028366;28;20439;-64
2024/04/01 01:28:10;;;;;;;3.10;1.60;;;;;;;10.82;100.00;99276.09;5038218;28;20511;-64
2024/04/01 01:30:38;;;;;;;4.25;2.08;;;;;;;10.86;100.00;99275.00;5038462;28;20203;-65
2024/04/01 01:33:06;;;;;;;2.78;1.65;;;;;;;10.85;100.00;99278.53;5024546;28;20395;-63
2024/04/01 01:35:35;;;;;;;1.70;1.60;;;;;;;10.81;100.00;99277.03;5024780;28;20492;-65
2024/04/01 01:38:01;;;;;;;1.98;1.50;;;;;;;10.81;100.00;99277.03;5033235;28;20053;-65
2024/04/01 01:40:27;;;;;;;2.53;1.70;;;;;;;10.76;100.00;99274.69;5044183;28;20025;-65
2024/04/01 01:42:52;;;;;;;2.65;1.67;;;;;;;10.73;100.00;99274.84;5039845;28;20028;-65
2024/04/01 01:45:17;;;;;;;1.95;1.70;;;;;;;10.72;100.00;99279.22;5030801;28;20107;-64
2024/04/01 01:47:42;;;;;;;2.63;1.60;;;;;;;10.73;100.00;99280.91;5037830;28;20041;-64
2024/04/01 01:50:08;;;;;;;1.70;1.60;;;;;;;10.71;100.00;99280.16;5033412;28;20104;-65
2024/04/01 01:52:34;;;;;;;2.17;1.75;;;;;;;10.68;100.00;99282.09;5038911;28;20018;-65
2024/04/01 01:55:00;;;;;;;2.58;1.55;;;;;;;10.65;100.00;99272.69;5027421;28;20024;-65
2024/04/01 01:57:27;;;;;;;3.05;1.92;;;;;;;10.61;100.00;99276.41;5042621;28;20441;-64
2024/04/01 01:59:53;;;;;;;2.15;1.60;;;;;;;10.65;100.00;99277.91;5030864;28;20017;-65
2024/04/01 02:02:18;;;;;;;2.13;1.80;;;;;;;10.64;100.00;99281.44;5031531;28;20458;-65
2024/04/01 02:04:44;;;;;;;4.30;1.77;;;;;;;10.61;100.00;99280.78;5042883;28;20033;-67
2024/04/01 02:07:09;;;;;;;6.05;1.80;;;;;;;10.63;100.00;99284.13;5043711;28;20021;-65
2024/04/01 02:09:35;;;;;;;2.55;1.63;;;;;;;10.62;100.00;99293.75;5036713;28;20040;-65
2024/04/01 02:12:02;;;;;;;2.67;1.83;;;;;;;10.62;100.00;99288.53;5039480;28;20025;-65
2024/04/01 02:14:27;;;;;;;2.17;1.70;;;;;;;10.56;100.00;99294.06;5035238;28;20100;-66
2024/04/01 02:16:53;;;;;;;1.60;1.50;;;;;;;10.61;100.00;99299.88;5035373;28;20021;-65
2024/04/01 02:19:19;;;;;;;1.98;1.67;;;;;;;10.58;100.00;99292.22;5039573;28;20386;-65
2024/04/01 02:21:47;;;;;;;2.15;1.70;;;;;;;10.56;100.00;99288.84;5043608;28;20275;-64
2024/04/01 02:24:17;;;;;;;2.13;1.70;;;;;;;10.57;100.00;99295.75;5030501;28;20558;-66
2024/04/01 02:26:43;;;;;;;1.85;1.73;;;;;;;10.56;100.00;99294.06;5032130;28;20025;-65
2024/04/01 02:29:09;;;;;;;1.70;1.60;;;;;;;10.59;100.00;99299.09;5036102;28;20535;-65
2024/04/01 02:31:34;;;;;;;1.77;1.65;;;;;;;10.59;100.00;99288.69;5041179;28;20080;-66
2024/04/01 02:34:00;;;;;;;3.22;1.60;;;;;;;10.58;100.00;99287.00;5036939;28;20033;-66
2024/04/01 02:36:25;;;;;;;1.95;1.80;;;;;;;10.56;100.00;99284.50;5041045;28;20167;-64
2024/04/01 02:38:51;;;;;;;4.82;1.70;;;;;;;10.53;100.00;99289.88;5041506;28;20099;-65
2024/04/01 02:41:16;;;;;;;1.95;1.70;;;;;;;10.54;100.00;99293.34;5040433;28;20024;-65
2024/04/01 02:43:45;;;;;;;3.97;2.28;;;;;;;10.54;100.00;99298.56;5038420;28;20494;-65
2024/04/01 02:46:10;;;;;;;3.47;2.10;;;;;;;10.54;100.00;99301.16;5029444;28;20029;-66
2024/04/01 02:48:36;;;;;;;2.60;2.00;;;;;;;10.53;100.00;99294.25;5031891;28;20572;-67
2024/04/01 02:51:04;;;;;;;5.22;2.22;;;;;;;10.52;100.00;99282.13;5043000;28;20479;-65
2024/04/01 02:53:30;;;;;;;3.83;2.30;;;;;;;10.49;100.00;99277.91;5037769;28;20083;-66
2024/04/01 02:55:55;;;;;;;2.53;2.08;;;;;;;10.52;100.00;99276.91;5030647;28;20033;-65
2024/04/01 02:58:20;;;;;;;2.63;1.80;;;;;;;10.50;100.00;99273.56;5040983;28;20476;-66
2024/04/01 03:00:46;;;;;;;2.53;2.00;;;;;;;10.45;100.00;99271.19;5032569;28;20025;-65
2024/04/01 03:03:12;;;;;;;1.95;1.70;;;;;;;10.49;100.00;99271.88;5034140;28;20029;-67
2024/04/01 03:05:40;;;;;;;4.15;1.90;;;;;;;10.39;100.00;99272.38;5036362;28;20552;-67
2024/04/01 03:08:06;;;;;;;1.85;1.75;;;;;;;10.37;100.00;99282.06;5039184;28;20329;-66
2024/04/01 03:10:35;;;;;;;1.80;1.70;;;;;;;10.37;100.00;99282.06;5034300;28;20099;-67
2024/04/01 03:13:05;;;;;;;6.25;2.08;;;;;;;10.38;100.00;99275.94;5034229;28;20711;-65
2024/04/01 03:15:31;;;;;;;6.22;2.00;;;;;;;10.38;100.00;99286.38;5032252;28;20040;-66
2024/04/01 03:17:57;;;;;;;2.40;1.88;;;;;;;10.36;100.00;99287.38;5034815;28;20037;-66
2024/04/01 03:20:22;;;;;;;2.78;2.00;;;;;;;10.34;100.00;99281.34;5038845;28;20032;-67
2024/04/01 03:22:48;;;;;;;2.00;1.90;;;;;;;10.33;100.00;99267.50;5042523;28;20154;-66
2024/04/01 03:25:13;;;;;;;2.53;2.08;;;;;;;10.35;100.00;99270.88;5029521;28;20132;-67
2024/04/01 03:27:38;;;;;;;4.22;1.90;;;;;;;10.33;100.00;99266.66;5034185;28;20033;-66
2024/04/01 03:30:04;;;;;;;2.83;1.90;;;;;;;10.33;100.00;99266.66;5036128;28;20111;-67
2024/04/01 03:32:30;;;;;;;2.25;1.83;;;;;;;10.32;100.00;99260.59;5030510;28;20037;-66
2024/04/01 03:34:55;;;;;;;3.00;2.10;;;;;;;10.35;100.00;99270.03;5034635;28;20029;-65
2024/04/01 03:37:21;;;;;;;2.78;2.00;;;;;;;10.31;100.00;99264.13;5035034;28;20029;-66
2024/04/01 03:39:47;;;;;;;2.03;1.80;;;;;;;10.32;100.00;99271.03;5035582;28;20025;-66
2024/04/01 03:42:13;;;;;;;3.92;2.10;;;;;;;10.30;100.00;99272.03;5038182;28;20434;-66
2024/04/01 03:44:40;;;;;;;3.00;1.95;;;;;;;10.26;100.00;99276.59;5041519;28;20025;-67
2024/04/01 03:47:05;;;;;;;3.08;1.90;;;;;;;10.29;100.00;99276.41;5035007;28;20040;-66
2024/04/01 03:49:30;;;;;;;3.45;2.35;;;;;;;10.27;100.00;99278.25;5023093;28;20026;-66
2024/04/01 03:51:56;;;;;;;2.53;1.98;;;;;;;10.27;100.00;99278.25;5031163;28;20514;-65
2024/04/01 03:54:21;;;;;;;2.28;1.90;;;;;;;10.25;100.00;99274.91;5036614;28;20560;-65
2024/04/01 03:56:48;;;;;;;2.08;1.90;;;;;;;10.22;100.00;99277.69;5033859;28;20113;-65
2024/04/01 03:59:14;;;;;;;4.28;2.05;;;;;;;10.22;100.00;99275.06;5041782;28;20072;-65
2024/04/01 04:01:40;;;;;;;2.47;2.17;;;;;;;10.18;100.00;99278.78;5032806;28;20385;-65
2024/04/01 04:04:05;;;;;;;2.35;2.10;;;;;;;10.16;100.00;99283.22;5040568;28;20472;-65
2024/04/01 04:06:30;;;;;;;2.63;2.30;;;;;;;10.17;100.00;99287.53;5038239;28;20037;-66
2024/04/01 04:08:57;;;;;;;3.65;2.10;;;;;;;10.17;100.00;99282.31;5035462;28;20021;-66
2024/04/01 04:11:22;;;;;;;2.03;1.80;;;;;;;10.18;100.00;99284.00;5028277;28;20033;-65
2024/04/01 04:13:48;;;;;;;5.03;2.10;;;;;;;10.20;100.00;99282.13;5040803;28;20082;-66
2024/04/01 04:16:13;;;;;;;3.42;2.20;;;;;;;10.22;100.00;99283.72;5023147;28;20344;-67
2024/04/01 04:18:39;;;;;;;4.00;2.47;;;;;;;10.21;100.00;99284.66;5037223;28;20037;-65
2024/04/01 04:21:09;;;;;;;5.22;2.42;;;;;;;10.19;100.00;99286.50;5034588;28;20060;-65
2024/04/01 04:23:35;;;;;;;4.50;1.90;;;;;;;10.17;100.00;99287.53;5026451;28;20573;-66
2024/04/01 04:26:00;;;;;;;2.25;2.05;;;;;;;10.17;100.00;99297.94;5032826;28;20033;-66
2024/04/01 04:28:25;;;;;;;3.58;1.90;;;;;;;10.05;100.00;99295.09;5036428;28;20264;-67
2024/04/01 04:30:51;;;;;;;2.45;1.98;;;;;;;10.10;100.00;99291.41;5029037;28;20029;-65
2024/04/01 04:33:16;;;;;;;2.60;1.90;;;;;;;10.07;100.00;99285.41;5040254;28;20025;-65
2024/04/01 04:35:41;;;;;;;2.55;1.90;;;;;;;10.09;100.00;99280.09;5039501;28;20039;-66
2024/04/01 04:38:07;;;;;;;3.75;1.90;;;;;;;10.11;100.00;99290.47;5044548;28;20111;-66
2024/04/01 04:40:32;;;;;;;3.70;2.10;;;;;;;10.07;100.00;99293.22;5040109;28;20028;-65
2024/04/01 04:42:57;;;;;;;2.55;2.10;;;;;;;10.04;100.00;99288.19;5037396;28;20479;-66
2024/04/01 04:45:23;;;;;;;2.65;2.00;;;;;;;10.03;100.00;99296.91;5037056;28;20052;-64
2024/04/01 04:47:52;;;;;;;4.40;2.40;;;;;;;10.03;100.00;99294.31;5034765;28;20029;-65
2024/04/01 04:50:20;;;;;;;4.00;2.10;;;;;;;10.03;100.00;99290.88;5036154;28;20033;-66
2024/04/01 04:52:45;;;;;;;4.90;2.15;;;;;;;10.00;100.00;99281.47;5044163;28;20029;-65
2024/04/01 04:55:11;;;;;;;3.72;2.47;;;;;;;10.03;100.00;99283.88;5038776;28;20294;-64
2024/04/01 04:57:36;;;;;;;3.28;2.45;;;;;;;9.98;100.00;99285.94;5042678;28;20218;-66
2024/04/01 05:00:20;;;;;;;2.90;2.40;;;;;;;10.03;100.00;99286.50;5037161;28;20036;-66
2024/04/01 05:02:52;;;;;;;3.05;2.30;;;;;;;10.01;100.00;99293.56;5039199;28;20344;-65
2024/04/01 05:05:20;;;;;;;3.47;2.10;;;;;;;9.98;100.00;99288.53;5031062;28;20528;-65
2024/04/01 05:07:46;;;;;;;4.10;2.40;;;;;;;10.00;100.00;99281.47;5033574;28;20316;-65
2024/04/01 05:10:12;;;;;;;4.13;2.33;;;;;;;9.95;100.00;99290.44;5032269;28;20408;-64
2024/04/01 05:12:41;;;;;;;2.08;1.90;;;;;;;9.95;100.00;99296.50;5043074;28;20053;-68
2024/04/01 05:15:06;;;;;;;2.30;2.10;;;;;;;9.98;100.00;99288.53;5034995;28;20021;-67
2024/04/01 05:17:32;;;;;;;2.72;2.00;;;;;;;9.99;100.00;99284.97;5034239;28;20045;-66
2024/04/01 05:20:00;;;;;;;4.13;2.17;;;;;;;9.97;100.00;99286.84;5038959;28;20305;-65
2024/04/01 05:22:26;;;;;;;3.45;2.08;;;;;;;9.98;100.00;99291.13;5044024;28;20466;-65
2024/04/01 05:24:52;;;;;;;2.97;1.80;;;;;;;10.00;100.00;99286.66;5038194;28;20017;-66
2024/04/01 05:27:17;;;;;;;2.60;2.10;;;;;;;9.98;100.00;99283.31;5040242;28;20404;-66
2024/04/01 05:29:43;;;;;;;2.25;1.98;;;;;;;9.98;100.00;99295.50;5041545;28;20043;-66
2024/04/01 05:32:08;;;;;;;1.95;1.85;;;;;;;9.94;100.00;99296.59;5035585;28;20021;-65
2024/04/01 05:34:37;;;;;;;3.10;2.08;;;;;;;9.92;100.00;99294.06;5035352;28;20029;-65
2024/04/01 05:37:04;;;;;;;4.05;1.90;;;;;;;9.90;100.00;99309.78;5038436;28;20056;-65
2024/04/01 05:39:30;;;;;;;3.83;2.22;;;;;;;9.88;100.00;99313.38;5037508;28;20095;-66
2024/04/01 05:41:55;;;;;;;4.13;1.92;;;;;;;9.84;100.00;99312.72;5042233;28;20025;-65
2024/04/01 05:44:20;;;;;;;3.28;1.73;;;;;;;9.84;100.00;99324.91;5036164;28;20032;-65
2024/04/01 05:46:46;;;;;;;2.67;1.70;;;;;;;9.79;100.00;99325.16;5034273;28;20138;-65
2024/04/01 05:49:11;;;;;;;1.75;1.40;;;;;;;9.71;100.00;99332.53;5039237;28;20032;-65
2024/04/01 05:51:36;;;;;;;2.10;1.90;;;;;;;9.64;100.00;99329.41;5037670;28;20712;-64
2024/04/01 05:54:02;;;;;;;3.20;1.67;;;;;;;9.60;100.00;99335.69;5042239;28;20029;-65
2024/04/01 05:56:27;;;;;;;2.00;1.80;;;;;;;9.58;100.00;99340.16;5030373;28;20024;-64
2024/04/01 05:58:52;;;;;;;2.45;2.00;;;;;;;9.57;100.00;99341.06;5038758;28;20021;-66
2024/04/01 06:01:17;;;;;;;3.60;2.17;;;;;;;9.57;100.00;99346.28;5045291;28;20032;-64
2024/04/01 06:03:43;;;;;;;6.80;2.20;;;;;;;9.55;100.00;99350.75;5032077;28;20387;-64
2024/04/01 06:06:08;;;;;;;3.28;2.00;;;;;;;9.58;100.00;99347.97;5032151;28;20044;-64
2024/04/01 06:08:33;;;;;;;2.03;1.88;;;;;;;9.56;100.00;99357.59;5035649;28;20082;-64
2024/04/01 06:11:02;;;;;;;2.70;1.63;;;;;;;9.55;100.00;99348.13;5024676;28;20025;-68
2024/04/01 06:13:27;;;;;;;2.67;1.90;;;;;;;9.56;100.00;99357.59;5038530;28;20453;-66
2024/04/01 06:15:53;;;;;;;2.30;2.10;;;;;;;9.55;100.00;99353.34;5030718;28;20033;-65
2024/04/01 06:18:18;;;;;;;2.20;2.00;;;;;;;9.54;100.00;99354.25;5035323;28;20160;-64
2024/04/01 06:20:43;;;;;;;2.15;1.88;;;;;;;9.51;100.00;99363.06;5040502;28;20442;-65
2024/04/01 06:23:09;;;;;;;2.67;2.10;;;;;;;9.52;100.00;99363.91;5037783;28;20049;-66
2024/04/01 06:25:42;;;;;;;2.78;2.00;;;;;;;9.50;100.00;99360.53;5031335;28;20111;-65
2024/04/01 06:28:08;;;;;;;4.35;1.95;;;;;;;9.54;100.00;99362.06;5030713;28;20403;-64
2024/04/01 06:30:34;;;;;;;3.47;2.00;;;;;;;9.55;100.00;99351.56;5033066;28;20044;-65
2024/04/01 06:32:59;;;;;;;2.50;2.25;;;;;;;9.57;100.00;99348.88;5026996;28;20407;-65
2024/04/01 06:35:24;;;;;;;2.20;2.00;;;;;;;9.55;100.00;99362.00;5021378;28;20029;-65
2024/04/01 06:37:50;;;;;;;2.45;2.05;;;;;;;9.52;100.00;99359.56;5030943;28;20062;-66
2024/04/01 06:40:15;;;;;;;3.03;2.38;;;;;;;9.53;100.00;99366.41;5032818;28;20029;-65
2024/04/01 06:42:41;;;;;;;2.40;2.20;;;;;;;9.53;100.00;99362.97;5036764;28;20043;-66
2024/04/01 06:45:06;;;;;;;2.67;2.40;;;;;;;9.54;100.00;99367.28;5032166;28;20053;-65
2024/04/01 06:47:32;;;;;;;2.40;2.20;;;;;;;9.54;100.00;99367.28;5029009;28;20573;-66
2024/04/01 06:49:57;;;;;;;3.45;2.40;;;;;;;9.57;100.00;99381.91;5030667;28;20086;-68
2024/04/01 06:52:23;;;;;;;3.40;2.38;;;;;;;9.58;100.00;99381.84;5031494;28;20472;-65
2024/04/01 06:54:50;;;;;;;3.50;2.13;;;;;;;9.57;100.00;99377.53;5028234;28;20028;-66
2024/04/01 06:57:15;;;;;;;3.55;2.22;;;;;;;9.58;100.00;99374.03;5036397;28;20122;-65
2024/04/01 06:59:41;;;;;;;2.78;2.42;;;;;;;9.56;100.00;99375.84;5033277;28;20842;-65
2024/04/01 07:02:06;;;;;;;2.45;2.25;;;;;;;9.55;100.00;99382.00;5037163;28;20040;-64
2024/04/01 07:04:31;;;;;;;3.70;2.50;;;;;;;9.53;100.00;99382.03;5034118;28;20120;-64
2024/04/01 07:06:57;;;;;;;4.18;2.47;;;;;;;9.51;100.00;99383.91;5029098;28;20061;-64
2024/04/01 07:09:22;;;;;;;3.00;2.70;;;;;;;9.48;100.00;99389.28;5037901;28;20021;-64
2024/04/01 07:11:47;;;;;;;3.17;2.78;;;;;;;9.47;100.00;99394.56;5026617;28;20176;-64
2024/04/01 07:14:13;;;;;;;3.55;2.83;;;;;;;9.46;100.00;99396.31;5039813;28;20032;-64
2024/04/01 07:16:38;;;;;;;3.55;2.58;;;;;;;9.44;100.00;99402.50;5035430;28;20307;-64
2024/04/01 07:19:03;;;;;;;3.45;2.65;;;;;;;9.45;100.00;99399.00;5035759;28;20687;-66
2024/04/01 07:21:29;;;;;;;3.75;2.67;;;;;;;9.45;100.00;99409.41;5033523;28;20048;-64
2024/04/01 07:23:55;;;;;;;4.18;2.80;;;;;;;9.45;100.00;99415.44;5041633;28;20025;-64
2024/04/01 07:26:20;;;;;;;3.20;2.90;;;;;;;9.46;100.00;99405.91;5031149;28;20040;-63
2024/04/01 07:28:45;;;;;;;3.38;2.85;;;;;;;9.45;100.00;99412.84;5041144;28;20528;-65
2024/04/01 07:31:11;;;;;;;5.40;2.80;;;;;;;9.46;100.00;99422.34;5032963;28;20021;-64
2024/04/01 07:33:36;;;;;;;4.82;3.22;;;;;;;9.48;100.00;99419.66;5035384;28;20539;-64
2024/04/01 07:36:02;;;;;;;4.82;3.30;;;;;;;9.48;100.00;99419.66;5026791;28;20484;-65
2024/04/01 07:38:27;;;;;;;4.63;3.30;;;;;;;9.52;100.00;99416.00;5035204;28;20036;-64
2024/04/01 07:40:53;;;;;;;3.70;3.20;;;;;;;9.54;100.00;99429.78;5033687;28;20028;-64
2024/04/01 07:43:18;;;;;;;3.63;3.33;;;;;;;9.53;100.00;99430.72;5024827;28;20036;-64
2024/04/01 07:45:43;;;;;;;4.60;3.42;;;;;;;9.51;100.00;99433.38;5023904;28;20025;-64
2024/04/01 07:48:09;;;;;;;4.45;3.28;;;;;;;9.52;100.00;99436.81;5035785;28;20031;-64
2024/04/01 07:50:34;;;;;;;4.05;3.58;;;;;;;9.54;100.00;99432.41;5038496;28;20090;-65
2024/04/01 07:52:59;;;;;;;6.03;3.47;;;;;;;9.55;100.00;99432.31;5041509;28;20025;-65
2024/04/01 07:55:25;;;;;;;5.60;3.70;;;;;;;9.60;100.00;99437.28;5034254;28;20029;-65
2024/04/01 07:57:50;;;;;;;5.32;3.97;;;;;;;9.62;100.00;99434.59;5035413;28;20426;-65
2024/04/01 08:00:16;;;;;;;4.10;3.55;;;;;;;9.66;100.00;99437.00;5036667;28;20032;-64
2024/04/01 08:02:41;;;;;;;3.90;3.47;;;;;;;9.67;100.00;99443.88;5043243;28;20032;-64
2024/04/01 08:05:07;;;;;;;5.32;3.63;;;;;;;9.66;100.00;99452.63;5040263;28;20071;-64
2024/04/01 08:07:32;;;;;;;4.05;3.58;;;;;;;9.70;100.00;99446.34;5039622;28;20029;-64
2024/04/01 08:09:58;;;;;;;4.43;4.00;;;;;;;9.73;100.00;99454.00;5037111;28;20051;-63
2024/04/01 08:12:23;;;;;;;6.18;3.97;;;;;;;9.79;100.00;99463.25;5027545;28;20108;-65
2024/04/01 08:14:48;;;;;;;4.85;4.00;;;;;;;9.85;100.00;99469.94;5034247;28;20060;-65
2024/04/01 08:17:14;;;;;;;5.90;4.70;;;;;;;9.86;100.00;99484.66;5032825;28;20052;-64
2024/04/01 08:19:39;;;;;;;4.63;4.22;;;;;;;9.87;100.00;99478.53;5040776;28;20021;-64
2024/04/01 08:22:04;;;;;;;6.93;4.60;;;;;;;9.85;100.00;99485.56;5039321;28;20025;-65
2024/04/01 08:24:30;;;;;;;6.15;4.65;;;;;;;9.85;100.00;99477.75;5041435;28;20027;-65
2024/04/01 08:26:55;;;;;;;5.75;4.78;;;;;;;9.87;100.00;99483.75;5038266;28;20377;-65
2024/04/01 08:29:20;;;;;;;6.18;4.93;;;;;;;9.91;100.00;99490.44;5036755;28;20028;-64
2024/04/01 08:31:46;;;;;;;5.20;4.68;;;;;;;9.94;100.00;99503.34;5036719;28;20491;-65
2024/04/01 08:34:11;;;;;;;6.25;4.97;;;;;;;9.95;100.00;99512.84;5040530;28;20030;-65
2024/04/01 08:36:37;;;;;;;5.13;4.43;;;;;;;9.92;100.00;99513.00;5041473;28;20017;-64
2024/04/01 08:39:03;;;;;;;5.85;4.82;;;;;;;9.88;100.00;99521.88;5041409;28;20032;-64
2024/04/01 08:41:40;;;;;;;5.65;4.55;;;;;;;9.90;100.00;99530.50;5040071;28;20550;-64
2024/04/01 08:44:16;;;;;;;5.85;4.85;;;;;;;9.88;100.00;99533.19;5038925;28;20024;-64
2024/04/01 08:46:48;;;;;;;4.57;4.15;;;;;;;9.87;100.00;99531.47;5036236;28;20482;-65
2024/04/01 08:49:14;;;;;;;7.10;5.03;;;;;;;9.85;100.00;99522.06;5039378;28;20044;-64
2024/04/01 08:51:42;;;;;;;7.65;5.40;;;;;;;9.88;100.00;99529.72;5039783;28;20017;-64
2024/04/01 08:54:09;;;;;;;8.70;5.25;;;;;;;9.90;100.00;99531.31;5042393;28;20033;-64
2024/04/01 08:56:39;;;;;;;6.25;4.80;;;;;;;9.94;100.00;99537.25;5039083;28;20029;-64
2024/04/01 08:59:05;;;;;;;5.30;4.38;;;;;;;9.91;100.00;99542.59;5034213;28;20639;-64
2024/04/01 09:01:31;;;;;;;6.15;4.22;;;;;;;9.89;100.00;99537.44;5039789;28;20167;-65
2024/04/01 09:03:56;;;;;;;4.85;3.95;;;;;;;9.87;100.00;99539.31;5043423;28;20454;-65
2024/04/01 09:06:22;;;;;;;5.35;4.22;;;;;;;9.87;100.00;99549.72;5043320;28;20180;-65
2024/04/01 09:08:51;;;;;;;5.00;4.28;;;;;;;9.90;100.00;99546.13;5039406;28;20033;-64
2024/04/01 09:11:16;;;;;;;5.25;3.85;;;;;;;9.92;100.00;99549.50;5039523;28;20656;-67
2024/04/01 09:13:42;;;;;;;5.95;4.32;;;;;;;9.88;100.00;99553.16;5042944;28;20159;-64
2024/04/01 09:16:07;;;;;;;6.97;4.60;;;;;;;9.87;100.00;99556.72;5038692;28;20099;-65
2024/04/01 09:18:36;;;;;;;5.90;4.25;;;;;;;9.83;100.00;99560.38;5039085;28;20033;-64
2024/04/01 09:21:02;;;;;;;6.15;4.60;;;;;;;9.86;100.00;99566.28;5041624;28;20597;-63
2024/04/01 09:23:31;;;;;;;5.40;4.75;;;;;;;9.88;100.00;99567.06;5042618;28;20024;-64
2024/04/01 09:26:01;;;;;;;7.45;5.25;;;;;;;9.88;100.00;99563.59;5042898;28;20074;-65
2024/04/01 09:28:26;;;;;;;5.68;5.18;;;;;;;9.86;100.00;99566.28;5037232;28;20273;-64
2024/04/01 09:30:52;;;;;;;6.68;6.00;;;;;;;9.84;100.00;99562.91;5041949;28;20074;-64
2024/04/01 09:33:18;;;;;;;8.48;6.00;;;;;;;9.84;100.00;99564.66;5037620;28;20479;-64
2024/04/01 09:35:43;;;;;;;6.88;6.07;;;;;;;9.79;100.00;99559.69;5028647;28;20029;-63
2024/04/01 09:38:08;;;;;;;8.30;6.30;;;;;;;9.82;100.00;99569.13;5036709;28;20036;-64
2024/04/01 09:40:34;;;;;;;9.70;7.03;;;;;;;9.78;100.00;99563.19;5039404;28;20088;-63
2024/04/01 09:43:00;;;;;;;9.15;7.15;;;;;;;9.80;100.00;99573.53;5040372;28;20668;-64
2024/04/01 09:45:28;;;;;;;9.45;6.90;;;;;;;9.75;100.00;99570.34;5036262;28;20038;-65
2024/04/01 09:47:54;;;;;;;10.18;7.53;;;;;;;9.71;100.00;99573.06;5033659;28;20057;-64
2024/04/01 09:50:24;;;;;;;8.93;7.13;;;;;;;9.73;100.00;99575.59;5037065;28;20028;-64
2024/04/01 09:52:50;;;;;;;8.93;6.82;;;;;;;9.76;100.00;99579.81;5037492;28;20029;-64
2024/04/01 09:55:24;;;;;;;11.00;7.82;;;;;;;9.76;100.00;99574.63;5027478;28;20025;-64
2024/04/01 09:57:58;;;;;;;9.95;7.70;;;;;;;9.73;100.00;99575.59;5035866;28;20097;-64
2024/04/01 10:00:30;;;;;;;10.60;8.13;;;;;;;9.76;100.00;99580.69;5031589;28;20033;-64
2024/04/01 10:03:15;;;;;;;12.85;7.65;;;;;;;9.84;100.00;99586.38;5029538;28;20025;-66
2024/04/01 10:06:02;;;;;;;11.55;7.45;;;;;;;9.85;100.00;99600.22;5031490;28;20132;-66
2024/04/01 10:08:51;;;;;;;8.73;7.40;;;;;;;9.84;100.00;99601.16;5033810;28;20043;-65
2024/04/01 10:11:43;;;;;;;8.70;7.00;;;;;;;9.87;100.00;99594.03;5028698;28;20376;-66
2024/04/01 10:14:37;;;;;;;10.57;6.90;;;;;;;9.87;100.00;99599.25;5029337;28;20033;-66
2024/04/01 10:17:20;;;;;;;8.98;7.38;;;;;;;9.80;100.00;99603.06;5033084;28;20020;-66
2024/04/01 10:20:18;;;;;;;11.67;7.20;;;;;;;9.85;100.00;99610.66;5026337;28;20151;-66
2024/04/01 10:23:20;;;;;;;10.80;7.40;;;;;;;9.90;100.00;99613.91;5030814;28;20290;-65
2024/04/01 10:26:17;;;;;;;7.72;6.93;;;;;;;9.95;100.00;99605.84;5035518;28;20244;-67
2024/04/01 10:29:23;;;;;;;9.02;6.70;;;;;;;9.98;100.00;99611.75;5026301;28;20463;-66
2024/04/01 10:32:00;;;;;;;10.57;6.82;;;;;;;9.88;100.00;99608.75;5026174;28;20029;-67
2024/04/01 10:35:00;;;;;;;8.57;6.53;;;;;;;9.95;100.00;99606.66;5030511;28;20059;-66
2024/04/01 10:37:50;;;;;;;10.73;6.45;;;;;;;9.96;100.00;99610.97;5025145;28;20171;-67
2024/04/01 10:40:37;;;;;;;8.18;6.40;;;;;;;9.94;100.00;99622.38;5023302;28;20559;-67
2024/04/01 10:43:24;;;;;;;8.88;6.57;;;;;;;9.92;100.00;99622.47;5021739;28;20029;-67
2024/04/01 10:46:03;;;;;;;11.48;7.20;;;;;;;9.93;100.00;99623.34;5029582;28;20025;-65
2024/04/01 10:48:29;;;;;;;7.90;6.65;;;;;;;9.97;100.00;99609.22;5025337;28;20025;-66
2024/04/01 10:51:31;;;;;;;9.75;6.88;;;;;;;9.95;100.00;99629.31;5024654;28;20385;-66
2024/04/01 10:54:04;;;;;;;9.98;6.65;;;;;;;9.90;100.00;99621.72;5021544;28;20033;-66
2024/04/01 10:57:07;;;;;;;9.25;6.70;;;;;;;9.95;100.00;99630.13;5031536;28;20063;-68
2024/04/01 11:00:10;;;;;;;11.63;6.75;;;;;;;10.02;100.00;99639.38;5027194;28;20026;-65
2024/04/01 11:03:00;;;;;;;8.50;6.70;;;;;;;9.99;100.00;99639.50;5033356;28;20040;-67
2024/04/01 11:05:34;;;;;;;14.25;7.22;;;;;;;10.02;100.00;99655.00;5025613;28;20483;-67
2024/04/01 11:08:24;;;;;;;9.85;6.22;;;;;;;10.23;100.00;99650.50;5037210;28;20044;-68
2024/04/01 11:11:08;;;;;;;8.00;5.53;;;;;;;10.09;100.00;99655.53;5024669;28;20260;-66
2024/04/01 11:13:37;;;;;;;;;;;;;;;10.23;100.00;99665.28;5031423;28;20579;-66
2024/04/01 11:16:04;;;;;;;10.40;6.50;;;;;;;10.18;100.00;99675.13;5025200;28;19913;-65
2024/04/01 11:19:08;;;;;;;9.95;6.00;;;;;;;10.18;100.00;99682.94;5023337;28;20416;-65
2024/04/01 11:21:51;;;;;;;9.98;6.40;;;;;;;10.27;100.00;99672.03;5028159;28;20082;-67
2024/04/01 11:24:54;;;;;;;8.38;5.88;;;;;;;10.31;100.00;99678.78;5026413;28;20056;-66
2024/04/01 11:27:35;;;;;;;8.80;5.45;;;;;;;10.29;100.00;99688.47;5023838;28;20607;-66
2024/04/01 11:30:30;;;;;;;8.40;6.03;;;;;;;10.33;100.00;99690.00;5025344;28;20060;-66
2024/04/01 11:33:10;;;;;;;9.98;5.68;;;;;;;10.37;100.00;99681.16;5018788;28;20036;-67
2024/04/01 11:35:46;;;;;;;11.70;5.50;;;;;;;10.44;100.00;99686.03;5024477;28;20150;-65